Time,TemperatureF,DewpointF,PressureIn,WindDirection,WindDirectionDegrees,WindSpeedMPH,WindSpeedGustMPH,Humidity,HourlyPrecipIn,Conditions,Clouds,dailyrainin,SoftwareType,DateUTC
2014-01-24 00:12:00,-999.0,-99.9,30.35,NNW,338,6.0,12.0,-999,-99.99,,,-99.99,,2014-01-24 05:12:00,
2014-01-24 00:22:00,-999.0,-99.9,30.35,North,349,7.0,13.0,-999,-99.99,,,-99.99,,2014-01-24 05:22:00,
2014-01-24 00:42:00,-999.0,-99.9,30.35,NNW,348,5.0,8.0,-999,-99.99,,,-99.99,,2014-01-24 05:42:00,
2014-01-24 00:53:00,-999.0,-99.9,30.35,NNW,339,7.0,9.0,-999,-99.99,,,-99.99,,2014-01-24 05:53:00,
2014-01-24 01:02:00,-999.0,-99.9,30.35,NNW,339,8.0,12.0,-999,-99.99,,,-99.99,,2014-01-24 06:02:00,
2014-01-24 01:22:00,-999.0,-99.9,30.36,North,358,6.0,8.0,-999,-99.99,,,-99.99,,2014-01-24 06:22:00,
2014-01-24 01:42:00,-999.0,-99.9,30.36,NNW,341,8.0,9.0,-999,-99.99,,,-99.99,,2014-01-24 06:42:00,
2014-01-24 01:52:00,-999.0,-99.9,30.35,NNW,345,11.0,14.0,-999,-99.99,,,-99.99,,2014-01-24 06:52:00,
2014-01-24 02:11:00,-999.0,-99.9,30.36,NNW,335,5.0,9.0,-999,-99.99,,,-99.99,,2014-01-24 07:11:00,
2014-01-24 02:22:00,-999.0,-99.9,30.36,NNW,333,6.0,7.0,-999,-99.99,,,-99.99,,2014-01-24 07:22:00,
2014-01-24 02:32:00,-999.0,-99.9,30.36,NNW,347,9.0,11.0,-999,-99.99,,,-99.99,,2014-01-24 07:32:00,
2014-01-24 02:42:00,-999.0,-99.9,30.36,NNW,342,9.0,15.0,-999,-99.99,,,-99.99,,2014-01-24 07:42:00,
2014-01-24 02:52:00,-999.0,-99.9,30.36,NNW,345,8.0,11.0,-999,-99.99,,,-99.99,,2014-01-24 07:52:00,
2014-01-24 03:01:00,-999.0,-99.9,30.37,NW,322,8.0,10.0,-999,-99.99,,,-99.99,,2014-01-24 08:01:00,
2014-01-24 03:22:00,-999.0,-99.9,30.37,NW,325,7.0,10.0,-999,-99.99,,,-99.99,,2014-01-24 08:22:00,
2014-01-24 03:42:00,-999.0,-99.9,30.37,NNW,341,7.0,9.0,-999,-99.99,,,-99.99,,2014-01-24 08:42:00,
2014-01-24 03:52:00,-999.0,-99.9,30.37,NNW,336,9.0,11.0,-999,-99.99,,,-99.99,,2014-01-24 08:52:00,
2014-01-24 04:02:00,-999.0,-99.9,30.36,NNW,340,10.0,12.0,-999,-99.99,,,-99.99,,2014-01-24 09:02:00,
2014-01-24 04:22:00,-999.0,-99.9,30.37,NNW,346,10.0,13.0,-999,-99.99,,,-99.99,,2014-01-24 09:22:00,
2014-01-24 04:33:00,-999.0,-99.9,30.37,NNW,344,9.0,12.0,-999,-99.99,,,-99.99,,2014-01-24 09:33:00,
2014-01-24 04:43:00,-999.0,-99.9,30.37,NNW,348,10.0,13.0,-999,-99.99,,,-99.99,,2014-01-24 09:43:00,
2014-01-24 04:53:00,-999.0,-99.9,30.37,North,349,10.0,13.0,-999,-99.99,,,-99.99,,2014-01-24 09:53:00,
2014-01-24 05:02:00,-999.0,-99.9,30.37,NNW,339,10.0,12.0,-999,-99.99,,,-99.99,,2014-01-24 10:02:00,
2014-01-24 05:23:00,-999.0,-99.9,30.38,NNW,339,9.0,11.0,-999,-99.99,,,-99.99,,2014-01-24 10:23:00,
2014-01-24 05:42:00,-999.0,-99.9,30.39,NNW,335,10.0,13.0,-999,-99.99,,,-99.99,,2014-01-24 10:42:00,
2014-01-24 05:52:00,-999.0,-99.9,30.39,NW,324,11.0,15.0,-999,-99.99,,,-99.99,,2014-01-24 10:52:00,
2014-01-24 06:12:00,-999.0,-99.9,30.40,NW,324,10.0,14.0,-999,-99.99,,,-99.99,,2014-01-24 11:12:00,
2014-01-24 06:22:00,-999.0,-99.9,30.41,NNW,329,8.0,12.0,-999,-99.99,,,-99.99,,2014-01-24 11:22:00,
2014-01-24 06:33:00,-999.0,-99.9,30.41,NNW,334,10.0,14.0,-999,-99.99,,,-99.99,,2014-01-24 11:33:00,
2014-01-24 06:52:00,-999.0,-99.9,30.42,NW,323,10.0,14.0,-999,-99.99,,,-99.99,,2014-01-24 11:52:00,
2014-01-24 07:12:00,-999.0,-99.9,30.42,NNW,331,9.0,13.0,-999,-99.99,,,-99.99,,2014-01-24 12:12:00,
2014-01-24 07:22:00,-999.0,-99.9,30.43,NNW,332,9.0,13.0,-999,-99.99,,,-99.99,,2014-01-24 12:22:00,
2014-01-24 07:42:00,-999.0,-99.9,30.43,NNW,342,9.0,11.0,-999,-99.99,,,-99.99,,2014-01-24 12:42:00,
2014-01-24 07:52:00,-999.0,-99.9,30.43,NNW,333,8.0,12.0,-999,-99.99,,,-99.99,,2014-01-24 12:52:00,
2014-01-24 08:12:00,-999.0,-99.9,30.44,NNW,335,11.0,17.0,-999,-99.99,,,-99.99,,2014-01-24 13:12:00,
2014-01-24 08:22:00,-999.0,-99.9,30.44,NNW,346,11.0,15.0,-999,-99.99,,,-99.99,,2014-01-24 13:22:00,
2014-01-24 08:32:00,-999.0,-99.9,30.45,NNW,347,10.0,15.0,-999,-99.99,,,-99.99,,2014-01-24 13:32:00,
2014-01-24 08:52:00,-999.0,-99.9,30.45,North,356,10.0,14.0,-999,-99.99,,,-99.99,,2014-01-24 13:52:00,
2014-01-24 09:11:00,-999.0,-99.9,30.45,North,352,10.0,14.0,-999,-99.99,,,-99.99,,2014-01-24 14:11:00,
2014-01-24 09:22:00,-999.0,-99.9,30.45,NNW,344,12.0,16.0,-999,-99.99,,,-99.99,,2014-01-24 14:22:00,
2014-01-24 09:42:00,-999.0,-99.9,30.45,North,6,11.0,17.0,-999,-99.99,,,-99.99,,2014-01-24 14:42:00,
2014-01-24 09:52:00,-999.0,-99.9,30.45,North,358,9.0,16.0,-999,-99.99,,,-99.99,,2014-01-24 14:52:00,
2014-01-24 10:02:00,-999.0,-99.9,30.45,North,5,9.0,17.0,-999,-99.99,,,-99.99,,2014-01-24 15:02:00,
2014-01-24 10:22:00,-999.0,-99.9,30.45,North,10,9.0,12.0,-999,-99.99,,,-99.99,,2014-01-24 15:22:00,
2014-01-24 10:44:00,-999.0,-99.9,30.45,North,2,13.0,19.0,-999,-99.99,,,-99.99,,2014-01-24 15:44:00,
2014-01-24 10:53:00,-999.0,-99.9,30.45,North,2,11.0,19.0,-999,-99.99,,,-99.99,,2014-01-24 15:53:00,
2014-01-24 11:13:00,-999.0,-99.9,30.45,North,7,10.0,18.0,-999,-99.99,,,-99.99,,2014-01-24 16:13:00,
2014-01-24 11:23:00,-999.0,-99.9,30.45,North,351,11.0,19.0,-999,-99.99,,,-99.99,,2014-01-24 16:23:00,
2014-01-24 11:33:00,-999.0,-99.9,30.44,North,6,11.0,18.0,-999,-99.99,,,-99.99,,2014-01-24 16:33:00,
2014-01-24 11:53:00,-999.0,-99.9,30.43,North,4,10.0,17.0,-999,-99.99,,,-99.99,,2014-01-24 16:53:00,
2014-01-24 12:12:00,-999.0,-99.9,30.42,North,-999,11.0,17.0,-999,-99.99,,,-99.99,,2014-01-24 17:12:00,
2014-01-24 12:23:00,-999.0,-99.9,30.41,North,6,12.0,15.0,-999,-99.99,,,-99.99,,2014-01-24 17:23:00,
2014-01-24 12:42:00,-999.0,-99.9,30.40,NNE,15,11.0,18.0,-999,-99.99,,,-99.99,,2014-01-24 17:42:00,
2014-01-24 12:53:00,-999.0,-99.9,30.39,North,359,8.0,14.0,-999,-99.99,,,-99.99,,2014-01-24 17:53:00,
2014-01-24 13:02:00,-999.0,-99.9,30.39,NNE,15,11.0,16.0,-999,-99.99,,,-99.99,,2014-01-24 18:02:00,
2014-01-24 13:22:00,-999.0,-99.9,30.37,NNW,341,13.0,16.0,-999,-99.99,,,-99.99,,2014-01-24 18:22:00,
2014-01-24 13:43:00,-999.0,-99.9,30.36,NNW,341,16.0,21.0,-999,-99.99,,,-99.99,,2014-01-24 18:43:00,
2014-01-24 13:52:00,-999.0,-99.9,30.35,NNW,329,13.0,17.0,-999,-99.99,,,-99.99,,2014-01-24 18:52:00,
2014-01-24 14:12:00,-999.0,-99.9,30.35,NNW,336,13.0,22.0,-999,-99.99,,,-99.99,,2014-01-24 19:12:00,
2014-01-24 14:22:00,-999.0,-99.9,30.35,NNW,333,10.0,17.0,-999,-99.99,,,-99.99,,2014-01-24 19:22:00,
2014-01-24 14:32:00,-999.0,-99.9,30.33,NNW,340,13.0,17.0,-999,-99.99,,,-99.99,,2014-01-24 19:32:00,
2014-01-24 14:42:00,-999.0,-99.9,30.33,North,359,11.0,18.0,-999,-99.99,,,-99.99,,2014-01-24 19:42:00,
2014-01-24 14:52:00,-999.0,-99.9,30.32,NNW,328,13.0,16.0,-999,-99.99,,,-99.99,,2014-01-24 19:52:00,
2014-01-24 15:02:00,-999.0,-99.9,30.32,NNW,327,11.0,14.0,-999,-99.99,,,-99.99,,2014-01-24 20:02:00,
2014-01-24 15:22:00,-999.0,-99.9,30.32,North,359,9.0,17.0,-999,-99.99,,,-99.99,,2014-01-24 20:22:00,
2014-01-24 15:42:00,-999.0,-99.9,30.32,NW,311,13.0,17.0,-999,-99.99,,,-99.99,,2014-01-24 20:42:00,
2014-01-24 15:52:00,-999.0,-99.9,30.31,NNW,332,13.0,18.0,-999,-99.99,,,-99.99,,2014-01-24 20:52:00,
2014-01-24 16:12:00,-999.0,-99.9,30.31,NW,317,8.0,16.0,-999,-99.99,,,-99.99,,2014-01-24 21:12:00,
2014-01-24 16:22:00,-999.0,-99.9,30.30,NW,309,13.0,16.0,-999,-99.99,,,-99.99,,2014-01-24 21:22:00,
2014-01-24 16:33:00,-999.0,-99.9,30.30,NW,309,11.0,19.0,-999,-99.99,,,-99.99,,2014-01-24 21:33:00,
2014-01-24 16:53:00,-999.0,-99.9,30.29,NW,321,9.0,13.0,-999,-99.99,,,-99.99,,2014-01-24 21:53:00,
2014-01-24 17:13:00,-999.0,-99.9,30.29,NW,306,7.0,15.0,-999,-99.99,,,-99.99,,2014-01-24 22:13:00,
2014-01-24 17:23:00,-999.0,-99.9,30.29,NW,320,14.0,18.0,-999,-99.99,,,-99.99,,2014-01-24 22:23:00,
2014-01-24 17:43:00,-999.0,-99.9,30.29,NW,323,11.0,17.0,-999,-99.99,,,-99.99,,2014-01-24 22:43:00,
2014-01-24 17:52:00,-999.0,-99.9,30.28,NW,306,9.0,13.0,-999,-99.99,,,-99.99,,2014-01-24 22:52:00,
2014-01-24 18:11:00,-999.0,-99.9,30.29,NW,307,9.0,13.0,-999,-99.99,,,-99.99,,2014-01-24 23:11:00,
2014-01-24 18:22:00,-999.0,-99.9,30.29,NW,312,11.0,16.0,-999,-99.99,,,-99.99,,2014-01-24 23:22:00,
2014-01-24 18:33:00,-999.0,-99.9,30.29,NW,314,8.0,16.0,-999,-99.99,,,-99.99,,2014-01-24 23:33:00,
2014-01-24 18:53:00,-999.0,-99.9,30.29,NW,323,9.0,14.0,-999,-99.99,,,-99.99,,2014-01-24 23:53:00,
2014-01-24 19:11:00,-999.0,-99.9,30.28,West,263,7.0,12.0,-999,-99.99,,,-99.99,,2014-01-25 00:11:00,
2014-01-24 19:22:00,-999.0,-99.9,30.28,West,263,7.0,12.0,-999,-99.99,,,-99.99,,2014-01-25 00:22:00,
2014-01-24 19:42:00,-999.0,-99.9,30.27,WSW,258,6.0,8.0,-999,-99.99,,,-99.99,,2014-01-25 00:42:00,
2014-01-24 19:52:00,-999.0,-99.9,30.27,West,260,5.0,7.0,-999,-99.99,,,-99.99,,2014-01-25 00:52:00,
2014-01-24 20:12:00,-999.0,-99.9,30.26,WSW,252,7.0,11.0,-999,-99.99,,,-99.99,,2014-01-25 01:12:00,
2014-01-24 20:22:00,-999.0,-99.9,30.26,West,266,7.0,9.0,-999,-99.99,,,-99.99,,2014-01-25 01:22:00,
2014-01-24 20:32:00,-999.0,-99.9,30.25,WSW,241,6.0,10.0,-999,-99.99,,,-99.99,,2014-01-25 01:32:00,
2014-01-24 20:52:00,-999.0,-99.9,30.24,WSW,237,6.0,7.0,-999,-99.99,,,-99.99,,2014-01-25 01:52:00,
2014-01-24 21:12:00,-999.0,-99.9,30.24,SW,234,7.0,10.0,-999,-99.99,,,-99.99,,2014-01-25 02:12:00,
2014-01-24 21:22:00,-999.0,-99.9,30.23,SW,234,7.0,10.0,-999,-99.99,,,-99.99,,2014-01-25 02:22:00,
2014-01-24 21:42:00,-999.0,-99.9,30.21,SW,231,6.0,8.0,-999,-99.99,,,-99.99,,2014-01-25 02:42:00,
2014-01-24 21:52:00,-999.0,-99.9,30.21,WSW,244,6.0,9.0,-999,-99.99,,,-99.99,,2014-01-25 02:52:00,
2014-01-24 22:02:00,-999.0,-99.9,30.20,SW,234,7.0,10.0,-999,-99.99,,,-99.99,,2014-01-25 03:02:00,
2014-01-24 22:22:00,-999.0,-99.9,30.19,WSW,250,6.0,11.0,-999,-99.99,,,-99.99,,2014-01-25 03:22:00,
2014-01-24 22:43:00,-999.0,-99.9,30.19,WSW,251,7.0,11.0,-999,-99.99,,,-99.99,,2014-01-25 03:43:00,
2014-01-24 22:53:00,-999.0,-99.9,30.18,WSW,237,7.0,9.0,-999,-99.99,,,-99.99,,2014-01-25 03:53:00,
2014-01-24 23:13:00,-999.0,-99.9,30.17,WSW,250,5.0,9.0,-999,-99.99,,,-99.99,,2014-01-25 04:13:00,
2014-01-24 23:23:00,-999.0,-99.9,30.17,WSW,237,7.0,9.0,-999,-99.99,,,-99.99,,2014-01-25 04:23:00,
2014-01-24 23:33:00,-999.0,-99.9,30.16,SW,232,6.0,11.0,-999,-99.99,,,-99.99,,2014-01-25 04:33:00,
2014-01-24 23:53:00,-999.0,-99.9,30.14,WSW,250,9.0,13.0,-999,-99.99,,,-99.99,,2014-01-25 04:53:00,